NCAR-RAP Real-Time Weather Data

Output produced by METARs form (06 May 2021  17:03 UTC)
found at http://weather.rap.ucar.edu/surface/
 
KCDS 061653Z AUTO VRB03KT 10SM CLR 24/08 A3031 RMK AO2 SLP244 T02390083
KCDS 061553Z AUTO 19005KT 10SM CLR 22/08 A3031 RMK AO2 SLP246 T02170078
KCDS 061453Z AUTO 22006KT 10SM BKN085 19/08 A3031 RMK AO2 SLP247 T01940078 51012
KCDS 061353Z AUTO 24005KT 10SM OVC085 16/08 A3030 RMK AO2 SLP245 T01610083
KCDS 061253Z AUTO 25004KT 10SM FEW080 13/09 A3029 RMK AO2 SLP241 T01330089
KCDS 061153Z AUTO 19006KT 10SM CLR 11/08 A3027 RMK AO2 SLP236 T01110083 10161 20106 53000
KCDS 061053Z AUTO 15006KT 10SM CLR 12/08 A3026 RMK AO2 SLP232 T01220083
KCDS 060953Z AUTO 09005KT 10SM CLR 13/08 A3027 RMK AO2 SLP234 T01280083
KCDS 060853Z AUTO 06008KT 10SM CLR 13/09 A3027 RMK AO2 SLP233 T01330089 51021
KCDS 060753Z AUTO 06009G17KT 10SM CLR 14/09 A3026 RMK AO2 SLP229 T01390089
KCDS 060653Z AUTO 05010KT 10SM CLR 15/07 A3025 RMK AO2 SLP228 T01500067
KCDS 060553Z AUTO 07007KT 10SM CLR 16/07 A3021 RMK AO2 SLP211 T01610072 10250 20161 402610089 53037
KCDS 060453Z AUTO 11008KT 10SM CLR 17/07 A3016 RMK AO2 LTG DSNT NE SLP195 T01720072
KCDS 060353Z AUTO 12008KT 10SM CLR 17/08 A3012 RMK AO2 SLP184 T01720078
KCDS 060253Z AUTO 13011KT 10SM CLR 19/08 A3009 RMK AO2 SLP174 T01940078 53007